createdAt,value
2022-09-23T00:01:13.955Z,2.80
2022-09-23T00:03:42.646Z,2.40
2022-09-23T00:06:12.381Z,2.50
2022-09-23T00:08:40.197Z,2.70
2022-09-23T00:11:15.369Z,2.40
2022-09-23T00:13:43.942Z,2.50
2022-09-23T00:16:14.720Z,1.90
2022-09-23T00:18:42.402Z,2.60
2022-09-23T00:21:12.175Z,2.10
2022-09-23T00:23:40.560Z,2.55
2022-09-23T00:26:09.194Z,2.40
2022-09-23T00:28:36.003Z,2.60
2022-09-23T00:31:11.201Z,2.22
2022-09-23T00:33:38.538Z,2.05
2022-09-23T00:36:07.514Z,1.90
2022-09-23T00:38:34.561Z,1.70
2022-09-23T00:41:01.476Z,2.33
2022-09-23T00:43:58.713Z,2.10
2022-09-23T00:46:31.107Z,2.22
2022-09-23T00:49:07.035Z,2.13
2022-09-23T00:51:38.585Z,1.90
2022-09-23T00:54:06.600Z,2.20
2022-09-23T00:56:34.647Z,1.90
2022-09-23T00:59:02.463Z,1.70
2022-09-23T01:01:29.836Z,2.35
2022-09-23T01:03:57.593Z,2.30
2022-09-23T01:06:24.482Z,2.60
2022-09-23T01:08:52.023Z,2.20
2022-09-23T01:11:18.876Z,2.00
2022-09-23T01:17:28.807Z,2.20
2022-09-23T01:19:57.070Z,2.28
2022-09-23T01:22:43.321Z,2.15
2022-09-23T01:25:35.634Z,2.40
2022-09-23T01:28:35.026Z,2.30
2022-09-23T01:31:37.114Z,2.50
2022-09-23T01:34:25.087Z,2.20
2022-09-23T01:36:57.999Z,2.55
2022-09-23T01:40:04.139Z,1.90
2022-09-23T01:42:46.592Z,2.05
2022-09-23T01:45:25.286Z,2.15
2022-09-23T01:47:57.298Z,1.77
2022-09-23T01:50:49.235Z,2.45
2022-09-23T01:53:37.805Z,2.42
2022-09-23T01:56:17.004Z,1.98
2022-09-23T01:59:15.432Z,2.67
2022-09-23T02:01:50.860Z,1.90
2022-09-23T02:05:04.129Z,1.98
2022-09-23T02:07:38.971Z,2.05
2022-09-23T02:10:24.367Z,2.28
2022-09-23T02:12:57.577Z,2.33
2022-09-23T02:15:31.647Z,2.30
2022-09-23T02:18:08.492Z,2.30
2022-09-23T02:20:39.712Z,2.55
2022-09-23T02:23:13.009Z,2.55
2022-09-23T02:25:51.688Z,2.30
2022-09-23T02:28:30.933Z,2.30
2022-09-23T02:31:41.929Z,2.50
2022-09-23T02:34:27.047Z,2.45
2022-09-23T02:37:14.120Z,2.53
2022-09-23T02:39:55.542Z,2.60
2022-09-23T02:42:27.630Z,2.97
2022-09-23T02:44:54.821Z,3.55
2022-09-23T02:47:24.495Z,2.88
2022-09-23T02:49:51.939Z,2.83
2022-09-23T02:52:18.780Z,2.50
2022-09-23T02:54:45.496Z,2.83
2022-09-23T02:57:14.471Z,2.47
2022-09-23T02:59:41.535Z,2.38
2022-09-23T03:02:27.068Z,2.10
2022-09-23T03:05:12.746Z,2.45
2022-09-23T03:07:45.237Z,3.35
2022-09-23T03:10:53.840Z,2.38
2022-09-23T03:13:48.752Z,2.63
2022-09-23T03:16:44.252Z,2.53
2022-09-23T03:19:34.820Z,2.50
2022-09-23T03:22:25.043Z,2.88
2022-09-23T03:24:54.243Z,2.88
2022-09-23T03:27:25.610Z,3.22
2022-09-23T03:29:54.777Z,2.80
2022-09-23T03:32:28.032Z,2.80
2022-09-23T03:34:57.807Z,2.85
2022-09-23T03:37:35.895Z,3.42
2022-09-23T03:40:21.092Z,3.05
2022-09-23T03:42:50.526Z,3.65
2022-09-23T03:45:21.710Z,2.80
2022-09-23T03:47:48.444Z,2.47
2022-09-23T03:50:17.246Z,2.97
2022-09-23T03:52:44.537Z,3.25
2022-09-23T03:55:11.476Z,2.70
2022-09-23T03:57:38.562Z,2.90
2022-09-23T04:00:07.412Z,2.95
2022-09-23T04:02:40.223Z,3.00
2022-09-23T04:05:09.081Z,3.15
2022-09-23T04:07:35.833Z,3.20
2022-09-23T04:10:02.761Z,2.88
2022-09-23T04:12:29.464Z,3.50
2022-09-23T04:14:56.175Z,2.88
2022-09-23T04:17:22.898Z,3.35
2022-09-23T04:19:49.594Z,3.53
2022-09-23T04:22:16.283Z,2.97
2022-09-23T04:24:43.461Z,3.20
2022-09-23T04:27:10.206Z,3.30
2022-09-23T04:29:36.932Z,3.63
2022-09-23T04:32:03.778Z,3.13
2022-09-23T04:34:30.523Z,4.18
2022-09-23T04:36:57.216Z,3.95
2022-09-23T04:39:23.915Z,3.53
2022-09-23T04:41:50.667Z,4.90
2022-09-23T04:44:17.370Z,5.45
2022-09-23T04:46:47.873Z,5.88
2022-09-23T04:49:15.998Z,3.40
2022-09-23T04:51:43.591Z,3.53
2022-09-23T04:54:13.696Z,2.97
2022-09-23T04:56:40.833Z,3.13
2022-09-23T04:59:07.936Z,3.50
2022-09-23T05:01:36.300Z,3.00
2022-09-23T05:04:06.137Z,2.95
2022-09-23T05:06:34.915Z,3.22
2022-09-23T05:09:04.387Z,3.15
2022-09-23T05:11:31.587Z,2.95
2022-09-23T05:13:58.848Z,3.47
2022-09-23T05:16:27.084Z,3.88
2022-09-23T05:18:54.499Z,3.80
2022-09-23T05:21:28.329Z,3.20
2022-09-23T05:23:58.876Z,3.53
2022-09-23T05:26:28.595Z,3.10
2022-09-23T05:28:56.343Z,3.67
2022-09-23T05:31:25.966Z,3.50
2022-09-23T05:33:56.825Z,3.42
2022-09-23T05:36:24.790Z,4.10
2022-09-23T05:38:52.548Z,3.10
2022-09-23T05:41:22.814Z,3.63
2022-09-23T05:43:53.648Z,3.47
2022-09-23T05:46:28.952Z,3.53
2022-09-23T05:49:01.747Z,3.78
2022-09-23T05:51:31.088Z,4.07
2022-09-23T05:53:59.568Z,4.72
2022-09-23T05:56:28.436Z,3.67
2022-09-23T05:58:56.924Z,3.65
2022-09-23T06:01:26.053Z,3.92
2022-09-23T06:03:54.297Z,4.70
2022-09-23T06:06:28.389Z,3.53
2022-09-23T06:08:55.160Z,3.55
2022-09-23T06:11:22.112Z,4.20
2022-09-23T06:13:49.291Z,4.10
2022-09-23T06:16:16.458Z,3.38
2022-09-23T06:18:45.539Z,4.15
2022-09-23T06:21:14.700Z,4.63
2022-09-23T06:23:42.214Z,4.50
2022-09-23T06:26:12.075Z,4.75
2022-09-23T06:28:40.477Z,4.43
2022-09-23T06:31:13.977Z,4.43
2022-09-23T06:33:42.770Z,4.70
2022-09-23T06:36:10.375Z,5.10
2022-09-23T06:38:44.053Z,5.45
2022-09-23T06:41:11.914Z,5.57
2022-09-23T06:43:38.904Z,5.28
2022-09-23T06:46:07.548Z,4.75
2022-09-23T06:48:41.716Z,5.00
2022-09-23T06:51:18.952Z,5.10
2022-09-23T06:53:47.118Z,4.85
2022-09-23T06:56:14.800Z,5.00
2022-09-23T06:58:41.698Z,4.43
2022-09-23T07:01:11.005Z,5.22
2022-09-23T07:03:38.782Z,4.60
2022-09-23T07:06:07.185Z,10.32
2022-09-23T07:08:34.967Z,14.07
2022-09-23T07:11:04.648Z,11.15
2022-09-23T07:13:33.347Z,7.80
2022-09-23T07:16:02.038Z,12.82
2022-09-23T07:18:36.614Z,6.65
2022-09-23T07:21:16.117Z,4.38
2022-09-23T07:23:47.693Z,3.97
2022-09-23T07:26:15.712Z,4.03
2022-09-23T07:28:42.745Z,4.20
2022-09-23T07:31:13.801Z,4.10
2022-09-23T07:33:44.091Z,3.40
2022-09-23T07:36:14.099Z,3.33
2022-09-23T07:38:45.286Z,3.47
2022-09-23T07:41:15.438Z,3.08
2022-09-23T07:43:42.275Z,3.80
2022-09-23T07:46:14.114Z,6.20
2022-09-23T07:48:40.922Z,8.23
2022-09-23T07:51:13.301Z,8.85
2022-09-23T07:53:40.091Z,4.68
2022-09-23T07:56:06.892Z,4.63
2022-09-23T07:58:39.439Z,4.00
2022-09-23T08:01:09.666Z,3.00
2022-09-23T08:03:37.469Z,2.67
2022-09-23T08:06:06.377Z,2.72
2022-09-23T08:08:33.111Z,1.98
2022-09-23T08:11:05.599Z,2.30
2022-09-23T08:13:33.301Z,3.17
2022-09-23T08:16:00.610Z,4.35
2022-09-23T08:18:27.645Z,3.10
2022-09-23T08:20:54.384Z,2.13
2022-09-23T08:23:21.401Z,2.28
2022-09-23T08:25:48.399Z,2.42
2022-09-23T08:28:18.371Z,2.10
2022-09-23T08:30:48.707Z,1.92
2022-09-23T08:33:20.989Z,2.33
2022-09-23T08:35:50.350Z,2.92
2022-09-23T08:38:17.094Z,3.17
2022-09-23T08:40:48.430Z,2.22
2022-09-23T08:43:27.328Z,2.33
2022-09-23T08:45:56.712Z,2.05
2022-09-23T08:48:30.518Z,2.42
2022-09-23T08:51:22.047Z,1.98
2022-09-23T08:53:48.854Z,2.35
2022-09-23T08:56:19.198Z,1.88
2022-09-23T08:58:56.354Z,2.42
2022-09-23T09:01:59.908Z,2.20
2022-09-23T09:04:35.586Z,2.20
2022-09-23T09:07:34.692Z,2.33
2022-09-23T09:10:00.403Z,2.10
2022-09-23T09:12:41.717Z,2.50
2022-09-23T09:15:14.592Z,2.20
2022-09-23T09:17:53.772Z,2.22
2022-09-23T09:20:27.816Z,2.55
2022-09-23T09:23:02.228Z,2.40
2022-09-23T09:25:48.394Z,2.40
2022-09-23T09:28:24.550Z,2.13
2022-09-23T09:30:56.393Z,2.00
2022-09-23T09:33:49.039Z,2.35
2022-09-23T09:36:37.905Z,1.70
2022-09-23T09:39:05.489Z,1.92
2022-09-23T09:41:32.585Z,1.88
2022-09-23T09:44:09.843Z,1.60
2022-09-23T09:46:48.369Z,1.77
2022-09-23T09:49:41.022Z,1.70
2022-09-23T09:52:13.731Z,1.58
2022-09-23T09:54:40.425Z,1.95
2022-09-23T09:57:25.213Z,1.73
2022-09-23T09:59:51.970Z,1.90
2022-09-23T10:02:23.647Z,2.00
2022-09-23T10:04:57.535Z,1.98
2022-09-23T10:07:27.287Z,2.08
2022-09-23T10:09:58.308Z,1.90
2022-09-23T10:12:47.257Z,2.17
2022-09-23T10:15:44.477Z,1.55
2022-09-23T10:18:28.002Z,1.98
2022-09-23T10:21:09.706Z,1.75
2022-09-23T10:23:42.332Z,1.95
2022-09-23T10:26:12.003Z,1.70
2022-09-23T10:28:44.529Z,1.60
2022-09-23T10:31:15.564Z,1.92
2022-09-23T10:33:50.444Z,2.33
2022-09-23T10:36:18.567Z,2.05
2022-09-23T10:39:20.554Z,1.90
2022-09-23T10:42:50.622Z,2.50
2022-09-23T10:45:47.422Z,1.80
2022-09-23T10:48:25.462Z,2.00
2022-09-23T10:50:54.062Z,1.88
2022-09-23T10:53:35.777Z,2.00
2022-09-23T10:56:24.537Z,1.77
2022-09-23T10:59:14.138Z,2.08
2022-09-23T11:01:58.213Z,1.65
2022-09-23T11:04:39.813Z,2.05
2022-09-23T11:07:40.872Z,1.88
2022-09-23T11:10:45.011Z,2.03
2022-09-23T11:13:54.083Z,1.90
2022-09-23T11:16:58.929Z,2.10
2022-09-23T11:19:41.092Z,1.63
2022-09-23T11:22:24.938Z,2.30
2022-09-23T11:25:25.740Z,2.20
2022-09-23T11:28:17.984Z,1.88
2022-09-23T11:31:00.739Z,1.85
2022-09-23T11:33:52.784Z,2.10
2022-09-23T11:36:37.683Z,1.80
2022-09-23T11:39:17.503Z,1.60
2022-09-23T11:41:46.149Z,1.77
2022-09-23T11:44:41.087Z,2.00
2022-09-23T11:47:24.495Z,2.03
2022-09-23T11:50:01.271Z,2.00
2022-09-23T11:52:36.584Z,1.75
2022-09-23T11:55:24.319Z,1.67
2022-09-23T11:57:55.148Z,1.83
2022-09-23T12:00:35.727Z,1.73
2022-09-23T12:03:29.342Z,1.65
2022-09-23T12:06:05.115Z,1.83
2022-09-23T12:08:39.091Z,1.80
2022-09-23T12:11:36.597Z,1.73
2022-09-23T12:14:09.604Z,1.60
2022-09-23T12:17:01.123Z,1.50
2022-09-23T12:19:51.664Z,2.00
2022-09-23T12:22:42.923Z,1.80
2022-09-23T12:25:26.567Z,1.80
2022-09-23T12:27:59.765Z,1.90
2022-09-23T12:30:30.577Z,1.63
2022-09-23T12:35:45.176Z,1.42
2022-09-23T12:38:31.489Z,2.00
2022-09-23T12:41:00.016Z,1.77
2022-09-23T12:43:33.308Z,1.77
2022-09-23T12:46:25.593Z,1.90
2022-09-23T12:48:58.899Z,1.85
2022-09-23T12:51:30.842Z,1.77
2022-09-23T12:54:14.194Z,1.80
2022-09-23T12:56:40.947Z,1.60
2022-09-23T12:59:18.075Z,1.80
2022-09-23T13:01:45.005Z,1.75
2022-09-23T13:04:48.449Z,1.85
2022-09-23T13:07:23.442Z,1.70
2022-09-23T13:09:52.546Z,1.70
2022-09-23T13:12:31.069Z,1.85
2022-09-23T13:15:03.484Z,1.50
2022-09-23T13:17:38.244Z,2.03
2022-09-23T13:20:38.258Z,3.00
2022-09-23T13:23:15.908Z,2.20
2022-09-23T13:25:43.838Z,1.60
2022-09-23T13:28:49.033Z,1.67
2022-09-23T13:31:19.334Z,1.50
2022-09-23T13:33:50.333Z,1.80
2022-09-23T13:36:19.112Z,1.98
2022-09-23T13:38:47.003Z,1.95
2022-09-23T13:41:28.618Z,1.60
2022-09-23T13:43:58.581Z,1.98
2022-09-23T13:46:34.998Z,1.53
2022-09-23T13:49:02.849Z,1.65
2022-09-23T13:51:33.885Z,1.52
2022-09-23T13:54:02.629Z,1.90
2022-09-23T13:56:33.373Z,1.80
2022-09-23T14:01:47.045Z,1.42
2022-09-23T14:04:25.318Z,1.70
2022-09-23T14:06:53.775Z,1.60
2022-09-23T14:09:27.422Z,2.03
2022-09-23T14:11:56.555Z,2.40
2022-09-23T14:14:24.131Z,1.83
2022-09-23T14:16:52.061Z,1.85
2022-09-23T14:19:23.859Z,1.98
2022-09-23T14:21:55.656Z,1.73
2022-09-23T14:24:34.001Z,1.70
2022-09-23T14:27:06.603Z,1.65
2022-09-23T14:29:41.965Z,1.70
2022-09-23T14:32:18.216Z,1.90
2022-09-23T14:34:48.397Z,1.88
2022-09-23T14:37:36.970Z,2.00
2022-09-23T14:40:09.389Z,2.40
2022-09-23T14:42:44.338Z,2.20
2022-09-23T14:45:20.612Z,2.20
2022-09-23T14:47:51.026Z,2.40
2022-09-23T14:51:02.361Z,2.10
2022-09-23T14:53:35.027Z,1.73
2022-09-23T14:56:22.109Z,2.05
2022-09-23T14:58:59.194Z,1.67
2022-09-23T15:01:32.985Z,1.90
2022-09-23T15:04:22.835Z,2.00
2022-09-23T15:06:55.828Z,2.47
2022-09-23T15:09:29.616Z,2.22
2022-09-23T15:11:59.945Z,2.38
2022-09-23T15:14:38.701Z,1.88
2022-09-23T15:17:32.473Z,1.73
2022-09-23T15:20:08.906Z,1.92
2022-09-23T15:22:50.303Z,2.28
2022-09-23T15:25:33.228Z,1.80
2022-09-23T15:28:17.279Z,2.13
2022-09-23T15:30:44.149Z,1.90
2022-09-23T15:33:13.622Z,2.17
2022-09-23T15:35:45.861Z,2.40
2022-09-23T15:38:12.903Z,3.30
2022-09-23T15:40:40.310Z,2.20
2022-09-23T15:43:27.643Z,2.15
2022-09-23T15:45:59.773Z,2.40
2022-09-23T15:48:31.682Z,1.95
2022-09-23T15:51:04.092Z,2.08
2022-09-23T15:53:31.440Z,1.70
2022-09-23T15:55:58.672Z,1.92
2022-09-23T15:58:26.300Z,1.83
2022-09-23T16:00:56.735Z,2.17
2022-09-23T16:03:30.653Z,1.88
2022-09-23T16:06:02.396Z,2.03
2022-09-23T16:08:32.195Z,1.98
2022-09-23T16:10:59.584Z,1.95
2022-09-23T16:13:26.317Z,2.30
2022-09-23T16:15:53.091Z,2.20
2022-09-23T16:18:20.176Z,2.00
2022-09-23T16:20:47.924Z,2.92
2022-09-23T16:23:35.410Z,2.80
2022-09-23T16:26:06.458Z,2.08
2022-09-23T16:28:33.628Z,2.60
2022-09-23T16:31:00.377Z,4.10
2022-09-23T16:33:27.671Z,8.90
2022-09-23T16:35:55.013Z,6.30
2022-09-23T16:38:21.712Z,3.55
2022-09-23T16:40:48.476Z,3.67
2022-09-23T16:43:15.369Z,2.50
2022-09-23T16:45:42.160Z,3.10
2022-09-23T16:48:11.328Z,2.40
2022-09-23T16:50:39.408Z,2.58
2022-09-23T16:53:06.239Z,2.58
2022-09-23T16:55:33.026Z,2.22
2022-09-23T16:57:59.756Z,2.08
2022-09-23T17:00:45.313Z,2.20
2022-09-23T17:03:31.590Z,1.95
2022-09-23T17:05:58.759Z,2.15
2022-09-23T17:08:25.585Z,1.92
2022-09-23T17:10:58.481Z,2.10
2022-09-23T17:13:26.986Z,1.90
2022-09-23T17:15:54.092Z,2.55
2022-09-23T17:18:21.559Z,2.60
2022-09-23T17:21:06.462Z,2.58
2022-09-23T17:23:35.507Z,10.30
2022-09-23T17:26:05.343Z,19.85
2022-09-23T17:28:32.452Z,17.60
2022-09-23T17:31:04.448Z,28.38
2022-09-23T17:33:32.715Z,26.67
2022-09-23T17:36:00.172Z,12.35
2022-09-23T17:38:29.433Z,5.45
2022-09-23T17:40:59.096Z,3.22
2022-09-23T17:43:26.052Z,3.00
2022-09-23T17:45:54.612Z,3.03
2022-09-23T17:48:22.684Z,2.65
2022-09-23T17:51:04.218Z,2.47
2022-09-23T17:53:33.055Z,3.05
2022-09-23T17:56:03.420Z,3.88
2022-09-23T17:58:33.644Z,3.28
2022-09-23T18:01:00.922Z,3.67
2022-09-23T18:03:30.019Z,2.83
2022-09-23T18:06:12.042Z,3.50
2022-09-23T18:08:39.610Z,3.75
2022-09-23T18:11:19.094Z,3.60
2022-09-23T18:13:51.183Z,3.50
2022-09-23T18:16:18.865Z,3.72
2022-09-23T18:19:00.157Z,3.28
2022-09-23T18:21:30.058Z,3.50
2022-09-23T18:24:28.272Z,3.95
2022-09-23T18:26:45.000Z,3.38
2022-09-23T18:29:11.692Z,11.70
2022-09-23T18:31:39.290Z,12.75
2022-09-23T18:34:10.382Z,9.98
2022-09-23T18:36:37.983Z,6.32
2022-09-23T18:39:05.368Z,3.95
2022-09-23T18:41:35.636Z,3.67
2022-09-23T18:44:04.211Z,4.00
2022-09-23T18:46:31.789Z,3.97
2022-09-23T18:49:17.964Z,4.45
2022-09-23T18:51:59.627Z,4.00
2022-09-23T18:54:30.449Z,15.65
2022-09-23T18:56:59.233Z,14.23
2022-09-23T18:59:29.799Z,7.95
2022-09-23T19:01:57.261Z,4.82
2022-09-23T19:04:29.739Z,3.75
2022-09-23T19:07:03.233Z,3.50
2022-09-23T19:09:29.949Z,2.90
2022-09-23T19:11:57.672Z,4.13
2022-09-23T19:14:24.505Z,3.20
2022-09-23T19:16:51.279Z,3.40
2022-09-23T19:19:18.157Z,3.08
2022-09-23T19:21:45.003Z,4.70
2022-09-23T19:24:15.603Z,3.90
2022-09-23T19:26:43.657Z,4.15
2022-09-23T19:29:15.635Z,22.75
2022-09-23T19:31:43.447Z,32.92
2022-09-23T19:34:19.302Z,16.77
2022-09-23T19:36:47.615Z,7.88
2022-09-23T19:39:19.834Z,5.68
2022-09-23T19:41:47.401Z,5.32
2022-09-23T19:44:15.257Z,6.05
2022-09-23T19:46:45.156Z,6.00
2022-09-23T19:49:12.294Z,4.43
2022-09-23T19:51:39.703Z,5.05
2022-09-23T19:54:07.706Z,5.25
2022-09-23T19:56:35.486Z,3.92
2022-09-23T19:59:04.464Z,4.45
2022-09-23T20:01:31.966Z,4.30
2022-09-23T20:03:59.531Z,4.57
2022-09-23T20:06:30.450Z,4.57
2022-09-23T20:09:00.861Z,3.85
2022-09-23T20:11:28.985Z,4.28
2022-09-23T20:14:02.183Z,3.65
2022-09-23T20:16:32.150Z,4.00
2022-09-23T20:19:00.263Z,4.53
2022-09-23T20:21:29.040Z,4.30
2022-09-23T20:23:56.768Z,4.20
2022-09-23T20:26:42.535Z,4.07
2022-09-23T20:29:10.635Z,5.28
2022-09-23T20:31:37.908Z,3.88
2022-09-23T20:34:07.002Z,4.55
2022-09-23T20:36:35.025Z,4.45
2022-09-23T20:39:05.661Z,4.07
2022-09-23T20:41:36.544Z,3.65
2022-09-23T20:46:32.819Z,3.53
2022-09-23T20:48:59.758Z,4.25
2022-09-23T20:51:26.657Z,3.50
2022-09-23T20:53:53.403Z,3.78
2022-09-23T20:56:21.346Z,3.60
2022-09-23T20:58:50.315Z,3.25
2022-09-23T21:01:17.739Z,3.13
2022-09-23T21:03:49.397Z,3.20
2022-09-23T21:06:18.613Z,3.45
2022-09-23T21:08:45.931Z,3.28
2022-09-23T21:11:15.605Z,3.40
2022-09-23T21:13:47.108Z,3.40
2022-09-23T21:16:19.140Z,3.10
2022-09-23T21:18:49.608Z,2.78
2022-09-23T21:21:19.269Z,2.88
2022-09-23T21:23:47.598Z,3.45
2022-09-23T21:26:20.232Z,3.13
2022-09-23T21:28:50.020Z,3.33
2022-09-23T21:31:23.253Z,3.08
2022-09-23T21:33:56.508Z,3.72
2022-09-23T21:36:24.518Z,3.40
2022-09-23T21:38:52.181Z,3.05
2022-09-23T21:41:20.824Z,4.25
2022-09-23T21:43:49.457Z,3.65
2022-09-23T21:46:21.488Z,3.50
2022-09-23T21:48:53.209Z,3.05
2022-09-23T21:51:26.209Z,3.35
2022-09-23T21:53:55.417Z,3.50
2022-09-23T21:56:27.659Z,3.40
2022-09-23T21:58:55.624Z,2.97
2022-09-23T22:01:35.176Z,3.08
2022-09-23T22:04:14.759Z,3.45
2022-09-23T22:06:41.900Z,2.97
2022-09-23T22:09:14.546Z,2.63
2022-09-23T22:12:00.632Z,3.58
2022-09-23T22:14:27.593Z,2.90
2022-09-23T22:16:57.321Z,2.97
2022-09-23T22:19:26.920Z,3.30
2022-09-23T22:21:55.734Z,2.95
2022-09-23T22:24:22.596Z,3.03
2022-09-23T22:26:49.341Z,3.22
2022-09-23T22:29:35.087Z,3.22
2022-09-23T22:32:22.225Z,3.42
2022-09-23T22:34:50.986Z,2.78
2022-09-23T22:37:21.204Z,3.30
2022-09-23T22:39:47.919Z,3.35
2022-09-23T22:42:14.671Z,3.33
2022-09-23T22:44:41.492Z,2.95
2022-09-23T22:47:09.170Z,3.67
2022-09-23T22:49:36.068Z,3.47
2022-09-23T22:52:04.022Z,3.10
2022-09-23T22:54:34.004Z,3.42
2022-09-23T22:57:03.188Z,3.60
2022-09-23T22:59:30.370Z,3.03
2022-09-23T23:01:59.864Z,3.13
2022-09-23T23:04:27.507Z,3.00
2022-09-23T23:06:54.253Z,2.83
2022-09-23T23:09:21.071Z,3.10
2022-09-23T23:11:48.003Z,3.30
2022-09-23T23:14:17.517Z,2.80
2022-09-23T23:16:46.052Z,3.47
2022-09-23T23:19:16.796Z,3.47
2022-09-23T23:21:45.021Z,3.28
2022-09-23T23:24:17.859Z,3.05
2022-09-23T23:26:45.267Z,3.17
2022-09-23T23:29:14.138Z,3.55
2022-09-23T23:31:41.569Z,4.35
2022-09-23T23:34:12.548Z,3.80
2022-09-23T23:39:06.735Z,4.47
2022-09-23T23:41:33.820Z,4.63
2022-09-23T23:44:01.250Z,4.47
2022-09-23T23:46:29.662Z,5.00
2022-09-23T23:48:57.543Z,4.72
2022-09-23T23:51:26.374Z,5.07
2022-09-23T23:53:53.943Z,5.30
2022-09-23T23:56:22.918Z,5.30
2022-09-23T23:58:57.423Z,5.68
